sensor_id;sensor_type;location;lat;lon;timestamp;P1;durP1;ratioP1;P2;durP2;ratioP2
4642;SDS011;2334;48.710;9.622;2022-10-31T00:00:06;8.97;;;5.13;;
4642;SDS011;2334;48.710;9.622;2022-10-31T00:02:38;12.87;;;4.57;;
4642;SDS011;2334;48.710;9.622;2022-10-31T00:05:05;9.73;;;4.07;;
4642;SDS011;2334;48.710;9.622;2022-10-31T00:07:32;5.20;;;3.90;;
4642;SDS011;2334;48.710;9.622;2022-10-31T00:09:59;7.60;;;3.00;;
4642;SDS011;2334;48.710;9.622;2022-10-31T00:12:25;6.80;;;3.83;;
4642;SDS011;2334;48.710;9.622;2022-10-31T00:14:53;5.03;;;3.83;;
4642;SDS011;2334;48.710;9.622;2022-10-31T00:17:19;9.37;;;4.03;;
4642;SDS011;2334;48.710;9.622;2022-10-31T00:19:48;4.43;;;3.23;;
4642;SDS011;2334;48.710;9.622;2022-10-31T00:22:14;8.30;;;3.97;;
4642;SDS011;2334;48.710;9.622;2022-10-31T00:24:41;10.53;;;4.03;;
4642;SDS011;2334;48.710;9.622;2022-10-31T00:27:09;5.87;;;3.60;;
4642;SDS011;2334;48.710;9.622;2022-10-31T00:29:35;11.07;;;4.00;;
4642;SDS011;2334;48.710;9.622;2022-10-31T00:32:02;8.23;;;3.90;;
4642;SDS011;2334;48.710;9.622;2022-10-31T00:34:29;7.00;;;3.90;;
4642;SDS011;2334;48.710;9.622;2022-10-31T00:36:57;5.90;;;3.73;;
4642;SDS011;2334;48.710;9.622;2022-10-31T00:39:24;6.93;;;3.30;;
4642;SDS011;2334;48.710;9.622;2022-10-31T00:41:51;8.30;;;3.73;;
4642;SDS011;2334;48.710;9.622;2022-10-31T00:44:18;10.93;;;3.60;;
4642;SDS011;2334;48.710;9.622;2022-10-31T00:46:45;9.53;;;4.40;;
4642;SDS011;2334;48.710;9.622;2022-10-31T00:49:12;6.77;;;3.57;;
4642;SDS011;2334;48.710;9.622;2022-10-31T00:51:38;9.07;;;3.00;;
4642;SDS011;2334;48.710;9.622;2022-10-31T00:54:07;5.13;;;3.50;;
4642;SDS011;2334;48.710;9.622;2022-10-31T00:56:33;11.70;;;3.77;;
4642;SDS011;2334;48.710;9.622;2022-10-31T00:59:00;5.43;;;3.03;;
4642;SDS011;2334;48.710;9.622;2022-10-31T01:01:27;6.47;;;3.00;;
4642;SDS011;2334;48.710;9.622;2022-10-31T01:03:54;10.93;;;3.60;;
4642;SDS011;2334;48.710;9.622;2022-10-31T01:06:21;8.60;;;3.23;;
4642;SDS011;2334;48.710;9.622;2022-10-31T01:08:48;5.00;;;3.23;;
4642;SDS011;2334;48.710;9.622;2022-10-31T01:11:17;6.70;;;3.20;;
4642;SDS011;2334;48.710;9.622;2022-10-31T01:13:45;5.93;;;3.60;;
4642;SDS011;2334;48.710;9.622;2022-10-31T01:16:13;7.80;;;3.43;;
4642;SDS011;2334;48.710;9.622;2022-10-31T01:18:42;3.83;;;3.13;;
4642;SDS011;2334;48.710;9.622;2022-10-31T01:21:11;3.63;;;3.20;;
4642;SDS011;2334;48.710;9.622;2022-10-31T01:23:39;7.20;;;2.30;;
4642;SDS011;2334;48.710;9.622;2022-10-31T01:26:07;6.77;;;2.40;;
4642;SDS011;2334;48.710;9.622;2022-10-31T01:28:38;6.17;;;3.00;;
4642;SDS011;2334;48.710;9.622;2022-10-31T01:31:10;7.10;;;3.30;;
4642;SDS011;2334;48.710;9.622;2022-10-31T01:33:37;7.50;;;3.80;;
4642;SDS011;2334;48.710;9.622;2022-10-31T01:36:14;7.53;;;3.13;;
4642;SDS011;2334;48.710;9.622;2022-10-31T01:38:43;6.40;;;4.03;;
4642;SDS011;2334;48.710;9.622;2022-10-31T01:41:11;2.93;;;2.73;;
4642;SDS011;2334;48.710;9.622;2022-10-31T01:43:51;8.00;;;3.20;;
4642;SDS011;2334;48.710;9.622;2022-10-31T01:46:20;5.13;;;3.43;;
4642;SDS011;2334;48.710;9.622;2022-10-31T01:48:50;4.80;;;2.50;;
4642;SDS011;2334;48.710;9.622;2022-10-31T01:51:18;8.93;;;2.30;;
4642;SDS011;2334;48.710;9.622;2022-10-31T01:53:48;3.00;;;2.60;;
4642;SDS011;2334;48.710;9.622;2022-10-31T01:56:18;11.60;;;3.60;;
4642;SDS011;2334;48.710;9.622;2022-10-31T01:58:47;5.07;;;2.80;;
4642;SDS011;2334;48.710;9.622;2022-10-31T02:01:14;10.33;;;3.43;;
4642;SDS011;2334;48.710;9.622;2022-10-31T02:03:42;5.07;;;2.47;;
4642;SDS011;2334;48.710;9.622;2022-10-31T02:06:10;10.17;;;2.70;;
4642;SDS011;2334;48.710;9.622;2022-10-31T02:08:45;4.73;;;3.03;;
4642;SDS011;2334;48.710;9.622;2022-10-31T02:11:12;3.63;;;3.33;;
4642;SDS011;2334;48.710;9.622;2022-10-31T02:13:40;2.70;;;2.50;;
4642;SDS011;2334;48.710;9.622;2022-10-31T02:16:09;7.83;;;2.77;;
4642;SDS011;2334;48.710;9.622;2022-10-31T02:18:36;3.67;;;2.63;;
4642;SDS011;2334;48.710;9.622;2022-10-31T02:21:05;17.13;;;3.20;;
4642;SDS011;2334;48.710;9.622;2022-10-31T02:26:45;6.07;;;3.17;;
4642;SDS011;2334;48.710;9.622;2022-10-31T02:29:32;3.47;;;2.63;;
4642;SDS011;2334;48.710;9.622;2022-10-31T02:32:24;11.73;;;3.40;;
4642;SDS011;2334;48.710;9.622;2022-10-31T02:34:57;3.60;;;3.17;;
4642;SDS011;2334;48.710;9.622;2022-10-31T02:37:29;8.73;;;2.87;;
4642;SDS011;2334;48.710;9.622;2022-10-31T02:40:03;3.03;;;2.20;;
4642;SDS011;2334;48.710;9.622;2022-10-31T02:42:38;7.33;;;3.10;;
4642;SDS011;2334;48.710;9.622;2022-10-31T02:45:13;6.27;;;3.20;;
4642;SDS011;2334;48.710;9.622;2022-10-31T02:47:48;6.73;;;3.17;;
4642;SDS011;2334;48.710;9.622;2022-10-31T02:50:22;6.90;;;3.60;;
4642;SDS011;2334;48.710;9.622;2022-10-31T02:52:52;4.10;;;3.70;;
4642;SDS011;2334;48.710;9.622;2022-10-31T02:58:23;3.90;;;2.90;;
4642;SDS011;2334;48.710;9.622;2022-10-31T03:03:59;3.13;;;2.10;;
4642;SDS011;2334;48.710;9.622;2022-10-31T03:06:38;13.70;;;3.33;;
4642;SDS011;2334;48.710;9.622;2022-10-31T03:09:10;8.20;;;3.13;;
4642;SDS011;2334;48.710;9.622;2022-10-31T03:11:42;4.00;;;3.70;;
4642;SDS011;2334;48.710;9.622;2022-10-31T03:14:17;4.67;;;2.90;;
4642;SDS011;2334;48.710;9.622;2022-10-31T03:16:48;9.10;;;3.37;;
4642;SDS011;2334;48.710;9.622;2022-10-31T03:19:18;11.33;;;3.33;;
4642;SDS011;2334;48.710;9.622;2022-10-31T03:21:51;3.43;;;2.70;;
4642;SDS011;2334;48.710;9.622;2022-10-31T03:24:22;5.10;;;2.73;;
4642;SDS011;2334;48.710;9.622;2022-10-31T03:26:53;5.10;;;2.77;;
4642;SDS011;2334;48.710;9.622;2022-10-31T03:29:23;18.50;;;2.50;;
4642;SDS011;2334;48.710;9.622;2022-10-31T03:31:54;5.63;;;3.53;;
4642;SDS011;2334;48.710;9.622;2022-10-31T03:34:25;7.67;;;3.20;;
4642;SDS011;2334;48.710;9.622;2022-10-31T03:36:53;6.30;;;3.60;;
4642;SDS011;2334;48.710;9.622;2022-10-31T03:39:22;4.60;;;3.30;;
4642;SDS011;2334;48.710;9.622;2022-10-31T03:41:52;8.03;;;3.47;;
4642;SDS011;2334;48.710;9.622;2022-10-31T03:44:21;2.60;;;2.40;;
4642;SDS011;2334;48.710;9.622;2022-10-31T03:46:49;6.40;;;3.90;;
4642;SDS011;2334;48.710;9.622;2022-10-31T03:49:16;6.30;;;3.20;;
4642;SDS011;2334;48.710;9.622;2022-10-31T03:51:46;6.03;;;3.20;;
4642;SDS011;2334;48.710;9.622;2022-10-31T03:54:20;9.20;;;2.90;;
4642;SDS011;2334;48.710;9.622;2022-10-31T03:56:52;4.90;;;3.50;;
4642;SDS011;2334;48.710;9.622;2022-10-31T03:59:24;4.10;;;2.63;;
4642;SDS011;2334;48.710;9.622;2022-10-31T04:01:57;8.60;;;3.70;;
4642;SDS011;2334;48.710;9.622;2022-10-31T04:04:28;3.60;;;2.93;;
4642;SDS011;2334;48.710;9.622;2022-10-31T04:06:57;7.07;;;3.00;;
4642;SDS011;2334;48.710;9.622;2022-10-31T04:09:27;5.03;;;3.13;;
4642;SDS011;2334;48.710;9.622;2022-10-31T04:11:57;6.07;;;3.07;;
4642;SDS011;2334;48.710;9.622;2022-10-31T04:14:27;4.03;;;2.93;;
4642;SDS011;2334;48.710;9.622;2022-10-31T04:16:55;9.47;;;2.50;;
4642;SDS011;2334;48.710;9.622;2022-10-31T04:19:22;4.73;;;2.73;;
4642;SDS011;2334;48.710;9.622;2022-10-31T04:21:49;4.17;;;2.80;;
4642;SDS011;2334;48.710;9.622;2022-10-31T04:24:18;5.83;;;2.73;;
4642;SDS011;2334;48.710;9.622;2022-10-31T04:26:44;6.70;;;3.17;;
4642;SDS011;2334;48.710;9.622;2022-10-31T04:29:11;4.20;;;3.17;;
4642;SDS011;2334;48.710;9.622;2022-10-31T04:31:38;4.13;;;3.73;;
4642;SDS011;2334;48.710;9.622;2022-10-31T04:34:05;4.43;;;2.50;;
4642;SDS011;2334;48.710;9.622;2022-10-31T04:36:32;4.07;;;2.63;;
4642;SDS011;2334;48.710;9.622;2022-10-31T04:38:59;7.20;;;2.37;;
4642;SDS011;2334;48.710;9.622;2022-10-31T04:41:27;10.43;;;3.10;;
4642;SDS011;2334;48.710;9.622;2022-10-31T04:43:54;3.60;;;3.30;;
4642;SDS011;2334;48.710;9.622;2022-10-31T04:46:21;5.53;;;3.10;;
4642;SDS011;2334;48.710;9.622;2022-10-31T04:48:48;3.27;;;2.43;;
4642;SDS011;2334;48.710;9.622;2022-10-31T04:51:15;4.53;;;2.73;;
4642;SDS011;2334;48.710;9.622;2022-10-31T04:53:42;4.47;;;2.67;;
4642;SDS011;2334;48.710;9.622;2022-10-31T04:56:08;3.40;;;3.10;;
4642;SDS011;2334;48.710;9.622;2022-10-31T04:58:37;4.30;;;3.17;;
4642;SDS011;2334;48.710;9.622;2022-10-31T05:01:03;3.13;;;2.93;;
4642;SDS011;2334;48.710;9.622;2022-10-31T05:03:30;6.80;;;3.20;;
4642;SDS011;2334;48.710;9.622;2022-10-31T05:05:57;8.80;;;3.20;;
4642;SDS011;2334;48.710;9.622;2022-10-31T05:08:24;6.00;;;2.67;;
4642;SDS011;2334;48.710;9.622;2022-10-31T05:10:51;5.60;;;3.37;;
4642;SDS011;2334;48.710;9.622;2022-10-31T05:13:18;4.47;;;2.93;;
4642;SDS011;2334;48.710;9.622;2022-10-31T05:15:46;4.70;;;2.80;;
4642;SDS011;2334;48.710;9.622;2022-10-31T05:18:13;5.07;;;3.53;;
4642;SDS011;2334;48.710;9.622;2022-10-31T05:20:40;3.87;;;2.83;;
4642;SDS011;2334;48.710;9.622;2022-10-31T05:23:06;3.03;;;2.80;;
4642;SDS011;2334;48.710;9.622;2022-10-31T05:25:33;4.57;;;2.50;;
4642;SDS011;2334;48.710;9.622;2022-10-31T05:28:00;7.10;;;3.37;;
4642;SDS011;2334;48.710;9.622;2022-10-31T05:30:28;7.53;;;3.47;;
4642;SDS011;2334;48.710;9.622;2022-10-31T05:32:57;4.83;;;2.67;;
4642;SDS011;2334;48.710;9.622;2022-10-31T05:35:26;7.50;;;2.90;;
4642;SDS011;2334;48.710;9.622;2022-10-31T05:37:54;3.03;;;2.63;;
4642;SDS011;2334;48.710;9.622;2022-10-31T05:40:22;4.00;;;2.63;;
4642;SDS011;2334;48.710;9.622;2022-10-31T05:42:50;3.97;;;3.00;;
4642;SDS011;2334;48.710;9.622;2022-10-31T05:45:18;5.57;;;2.60;;
4642;SDS011;2334;48.710;9.622;2022-10-31T05:47:49;4.70;;;3.00;;
4642;SDS011;2334;48.710;9.622;2022-10-31T05:50:18;4.20;;;2.77;;
4642;SDS011;2334;48.710;9.622;2022-10-31T05:52:46;5.07;;;2.83;;
4642;SDS011;2334;48.710;9.622;2022-10-31T05:55:13;6.70;;;3.50;;
4642;SDS011;2334;48.710;9.622;2022-10-31T05:57:39;3.67;;;3.07;;
4642;SDS011;2334;48.710;9.622;2022-10-31T06:00:07;11.40;;;2.90;;
4642;SDS011;2334;48.710;9.622;2022-10-31T06:02:35;6.60;;;3.80;;
4642;SDS011;2334;48.710;9.622;2022-10-31T06:05:02;3.60;;;3.10;;
4642;SDS011;2334;48.710;9.622;2022-10-31T06:07:33;4.40;;;3.17;;
4642;SDS011;2334;48.710;9.622;2022-10-31T06:10:01;9.77;;;3.57;;
4642;SDS011;2334;48.710;9.622;2022-10-31T06:12:29;3.70;;;3.03;;
4642;SDS011;2334;48.710;9.622;2022-10-31T06:14:56;4.80;;;3.00;;
4642;SDS011;2334;48.710;9.622;2022-10-31T06:17:23;9.63;;;2.93;;
4642;SDS011;2334;48.710;9.622;2022-10-31T06:19:50;4.53;;;3.73;;
4642;SDS011;2334;48.710;9.622;2022-10-31T06:22:17;6.27;;;2.87;;
4642;SDS011;2334;48.710;9.622;2022-10-31T06:24:45;2.97;;;2.77;;
4642;SDS011;2334;48.710;9.622;2022-10-31T06:27:12;6.80;;;3.47;;
4642;SDS011;2334;48.710;9.622;2022-10-31T06:29:39;5.00;;;3.30;;
4642;SDS011;2334;48.710;9.622;2022-10-31T06:32:06;5.20;;;3.07;;
4642;SDS011;2334;48.710;9.622;2022-10-31T06:34:35;3.70;;;3.27;;
4642;SDS011;2334;48.710;9.622;2022-10-31T06:37:02;5.30;;;2.77;;
4642;SDS011;2334;48.710;9.622;2022-10-31T06:39:29;5.77;;;3.63;;
4642;SDS011;2334;48.710;9.622;2022-10-31T06:41:57;4.73;;;3.50;;
4642;SDS011;2334;48.710;9.622;2022-10-31T06:44:24;4.27;;;3.23;;
4642;SDS011;2334;48.710;9.622;2022-10-31T06:46:51;7.43;;;3.40;;
4642;SDS011;2334;48.710;9.622;2022-10-31T06:49:18;5.00;;;3.03;;
4642;SDS011;2334;48.710;9.622;2022-10-31T06:51:46;8.97;;;3.83;;
4642;SDS011;2334;48.710;9.622;2022-10-31T06:54:14;7.83;;;4.10;;
4642;SDS011;2334;48.710;9.622;2022-10-31T06:56:41;6.57;;;3.30;;
4642;SDS011;2334;48.710;9.622;2022-10-31T06:59:10;9.80;;;3.03;;
4642;SDS011;2334;48.710;9.622;2022-10-31T07:01:36;13.17;;;4.03;;
4642;SDS011;2334;48.710;9.622;2022-10-31T07:04:03;5.40;;;3.13;;
4642;SDS011;2334;48.710;9.622;2022-10-31T07:06:30;15.00;;;4.47;;
4642;SDS011;2334;48.710;9.622;2022-10-31T07:08:57;12.50;;;4.10;;
4642;SDS011;2334;48.710;9.622;2022-10-31T07:11:24;5.07;;;3.53;;
4642;SDS011;2334;48.710;9.622;2022-10-31T07:13:50;8.60;;;4.57;;
4642;SDS011;2334;48.710;9.622;2022-10-31T07:16:19;7.33;;;3.80;;
4642;SDS011;2334;48.710;9.622;2022-10-31T07:18:45;6.60;;;4.57;;
4642;SDS011;2334;48.710;9.622;2022-10-31T07:21:12;14.27;;;4.10;;
4642;SDS011;2334;48.710;9.622;2022-10-31T07:23:39;9.27;;;4.37;;
4642;SDS011;2334;48.710;9.622;2022-10-31T07:26:07;6.10;;;4.10;;
4642;SDS011;2334;48.710;9.622;2022-10-31T07:28:35;9.30;;;3.73;;
4642;SDS011;2334;48.710;9.622;2022-10-31T07:31:02;6.77;;;3.73;;
4642;SDS011;2334;48.710;9.622;2022-10-31T07:33:30;8.30;;;4.07;;
4642;SDS011;2334;48.710;9.622;2022-10-31T07:35:57;5.37;;;3.10;;
4642;SDS011;2334;48.710;9.622;2022-10-31T07:38:24;7.83;;;3.90;;
4642;SDS011;2334;48.710;9.622;2022-10-31T07:40:51;5.30;;;3.27;;
4642;SDS011;2334;48.710;9.622;2022-10-31T07:43:18;6.23;;;3.50;;
4642;SDS011;2334;48.710;9.622;2022-10-31T07:45:48;4.63;;;3.27;;
4642;SDS011;2334;48.710;9.622;2022-10-31T07:48:17;6.57;;;4.07;;
4642;SDS011;2334;48.710;9.622;2022-10-31T07:50:45;6.70;;;3.77;;
4642;SDS011;2334;48.710;9.622;2022-10-31T07:53:13;7.47;;;3.80;;
4642;SDS011;2334;48.710;9.622;2022-10-31T07:55:41;13.43;;;3.83;;
4642;SDS011;2334;48.710;9.622;2022-10-31T07:58:09;5.37;;;3.23;;
4642;SDS011;2334;48.710;9.622;2022-10-31T08:00:37;6.63;;;3.47;;
4642;SDS011;2334;48.710;9.622;2022-10-31T08:03:06;7.27;;;4.37;;
4642;SDS011;2334;48.710;9.622;2022-10-31T08:05:35;6.30;;;3.80;;
4642;SDS011;2334;48.710;9.622;2022-10-31T08:08:04;14.60;;;4.00;;
4642;SDS011;2334;48.710;9.622;2022-10-31T08:10:31;12.37;;;4.17;;
4642;SDS011;2334;48.710;9.622;2022-10-31T08:13:00;11.10;;;4.30;;
4642;SDS011;2334;48.710;9.622;2022-10-31T08:15:29;10.90;;;3.90;;
4642;SDS011;2334;48.710;9.622;2022-10-31T08:17:56;8.10;;;4.10;;
4642;SDS011;2334;48.710;9.622;2022-10-31T08:20:23;29.83;;;5.20;;
4642;SDS011;2334;48.710;9.622;2022-10-31T08:22:54;5.17;;;2.90;;
4642;SDS011;2334;48.710;9.622;2022-10-31T08:25:23;10.00;;;4.67;;
4642;SDS011;2334;48.710;9.622;2022-10-31T08:27:51;9.07;;;4.17;;
4642;SDS011;2334;48.710;9.622;2022-10-31T08:30:19;7.50;;;4.07;;
4642;SDS011;2334;48.710;9.622;2022-10-31T08:32:47;3.73;;;3.33;;
4642;SDS011;2334;48.710;9.622;2022-10-31T08:35:22;7.00;;;3.90;;
4642;SDS011;2334;48.710;9.622;2022-10-31T08:37:51;5.13;;;3.20;;
4642;SDS011;2334;48.710;9.622;2022-10-31T08:40:18;7.50;;;3.63;;
4642;SDS011;2334;48.710;9.622;2022-10-31T08:42:46;8.53;;;3.70;;
4642;SDS011;2334;48.710;9.622;2022-10-31T08:45:13;9.63;;;4.10;;
4642;SDS011;2334;48.710;9.622;2022-10-31T08:47:40;7.77;;;3.83;;
4642;SDS011;2334;48.710;9.622;2022-10-31T08:50:07;7.60;;;4.20;;
4642;SDS011;2334;48.710;9.622;2022-10-31T08:52:34;8.13;;;4.37;;
4642;SDS011;2334;48.710;9.622;2022-10-31T08:55:01;10.73;;;4.63;;
4642;SDS011;2334;48.710;9.622;2022-10-31T08:57:28;8.97;;;4.10;;
4642;SDS011;2334;48.710;9.622;2022-10-31T08:59:57;14.13;;;4.67;;
4642;SDS011;2334;48.710;9.622;2022-10-31T09:02:23;7.43;;;4.17;;
4642;SDS011;2334;48.710;9.622;2022-10-31T09:04:50;13.43;;;5.20;;
4642;SDS011;2334;48.710;9.622;2022-10-31T09:07:17;6.00;;;3.87;;
4642;SDS011;2334;48.710;9.622;2022-10-31T09:09:44;7.70;;;4.20;;
4642;SDS011;2334;48.710;9.622;2022-10-31T09:12:11;12.57;;;5.37;;
4642;SDS011;2334;48.710;9.622;2022-10-31T09:14:38;9.03;;;5.00;;
4642;SDS011;2334;48.710;9.622;2022-10-31T09:17:06;10.83;;;5.23;;
4642;SDS011;2334;48.710;9.622;2022-10-31T09:19:33;10.20;;;4.00;;
4642;SDS011;2334;48.710;9.622;2022-10-31T09:22:00;7.13;;;4.53;;
4642;SDS011;2334;48.710;9.622;2022-10-31T09:24:27;14.63;;;5.00;;
4642;SDS011;2334;48.710;9.622;2022-10-31T09:26:54;10.93;;;5.77;;
4642;SDS011;2334;48.710;9.622;2022-10-31T09:29:21;9.10;;;4.60;;
4642;SDS011;2334;48.710;9.622;2022-10-31T09:31:48;6.10;;;4.33;;
4642;SDS011;2334;48.710;9.622;2022-10-31T09:34:16;10.67;;;4.30;;
4642;SDS011;2334;48.710;9.622;2022-10-31T09:36:43;10.57;;;4.90;;
4642;SDS011;2334;48.710;9.622;2022-10-31T09:39:11;8.00;;;4.43;;
4642;SDS011;2334;48.710;9.622;2022-10-31T09:41:44;15.73;;;4.70;;
4642;SDS011;2334;48.710;9.622;2022-10-31T09:44:25;10.40;;;4.27;;
4642;SDS011;2334;48.710;9.622;2022-10-31T09:47:00;10.30;;;4.90;;
4642;SDS011;2334;48.710;9.622;2022-10-31T09:49:36;10.27;;;4.33;;
4642;SDS011;2334;48.710;9.622;2022-10-31T09:52:17;14.03;;;4.43;;
4642;SDS011;2334;48.710;9.622;2022-10-31T09:54:49;8.33;;;3.60;;
4642;SDS011;2334;48.710;9.622;2022-10-31T09:57:19;8.50;;;4.27;;
4642;SDS011;2334;48.710;9.622;2022-10-31T09:59:51;6.40;;;3.27;;
4642;SDS011;2334;48.710;9.622;2022-10-31T10:02:20;11.63;;;4.20;;
4642;SDS011;2334;48.710;9.622;2022-10-31T10:04:53;8.90;;;4.70;;
4642;SDS011;2334;48.710;9.622;2022-10-31T10:07:26;8.83;;;4.10;;
4642;SDS011;2334;48.710;9.622;2022-10-31T10:09:59;7.60;;;3.40;;
4642;SDS011;2334;48.710;9.622;2022-10-31T10:12:31;6.83;;;4.27;;
4642;SDS011;2334;48.710;9.622;2022-10-31T10:18:04;16.03;;;4.47;;
4642;SDS011;2334;48.710;9.622;2022-10-31T10:20:44;8.63;;;4.07;;
4642;SDS011;2334;48.710;9.622;2022-10-31T10:23:35;7.03;;;4.43;;
4642;SDS011;2334;48.710;9.622;2022-10-31T10:26:21;10.67;;;4.27;;
4642;SDS011;2334;48.710;9.622;2022-10-31T10:28:51;8.23;;;3.83;;
4642;SDS011;2334;48.710;9.622;2022-10-31T10:31:24;12.33;;;4.00;;
4642;SDS011;2334;48.710;9.622;2022-10-31T10:33:57;10.27;;;4.80;;
4642;SDS011;2334;48.710;9.622;2022-10-31T10:36:32;7.90;;;4.40;;
4642;SDS011;2334;48.710;9.622;2022-10-31T10:39:04;7.93;;;4.70;;
4642;SDS011;2334;48.710;9.622;2022-10-31T10:41:37;7.70;;;4.10;;
4642;SDS011;2334;48.710;9.622;2022-10-31T10:44:09;5.83;;;4.23;;
4642;SDS011;2334;48.710;9.622;2022-10-31T10:46:39;6.87;;;4.30;;
4642;SDS011;2334;48.710;9.622;2022-10-31T10:49:26;8.83;;;4.20;;
4642;SDS011;2334;48.710;9.622;2022-10-31T10:52:05;13.57;;;4.73;;
4642;SDS011;2334;48.710;9.622;2022-10-31T10:54:45;8.60;;;4.90;;
4642;SDS011;2334;48.710;9.622;2022-10-31T10:57:22;12.30;;;5.07;;
4642;SDS011;2334;48.710;9.622;2022-10-31T10:59:55;15.83;;;4.73;;
4642;SDS011;2334;48.710;9.622;2022-10-31T11:02:25;5.00;;;3.63;;
4642;SDS011;2334;48.710;9.622;2022-10-31T11:04:56;10.30;;;5.03;;
4642;SDS011;2334;48.710;9.622;2022-10-31T11:07:26;10.20;;;4.70;;
4642;SDS011;2334;48.710;9.622;2022-10-31T11:10:04;9.77;;;4.60;;
4642;SDS011;2334;48.710;9.622;2022-10-31T11:12:38;7.23;;;4.60;;
4642;SDS011;2334;48.710;9.622;2022-10-31T11:15:07;7.00;;;4.10;;
4642;SDS011;2334;48.710;9.622;2022-10-31T11:17:46;9.10;;;4.27;;
4642;SDS011;2334;48.710;9.622;2022-10-31T11:23:04;10.70;;;4.47;;
4642;SDS011;2334;48.710;9.622;2022-10-31T11:25:47;11.60;;;4.43;;
4642;SDS011;2334;48.710;9.622;2022-10-31T11:28:16;11.27;;;3.90;;
4642;SDS011;2334;48.710;9.622;2022-10-31T11:30:44;13.33;;;4.70;;
4642;SDS011;2334;48.710;9.622;2022-10-31T11:33:16;11.00;;;3.90;;
4642;SDS011;2334;48.710;9.622;2022-10-31T11:35:46;11.93;;;5.47;;
4642;SDS011;2334;48.710;9.622;2022-10-31T11:38:18;8.60;;;3.30;;
4642;SDS011;2334;48.710;9.622;2022-10-31T11:40:53;6.67;;;5.00;;
4642;SDS011;2334;48.710;9.622;2022-10-31T11:43:22;7.43;;;3.70;;
4642;SDS011;2334;48.710;9.622;2022-10-31T11:45:49;9.20;;;4.80;;
4642;SDS011;2334;48.710;9.622;2022-10-31T11:48:17;7.17;;;4.00;;
4642;SDS011;2334;48.710;9.622;2022-10-31T11:50:50;12.70;;;4.60;;
4642;SDS011;2334;48.710;9.622;2022-10-31T11:53:20;10.77;;;4.53;;
4642;SDS011;2334;48.710;9.622;2022-10-31T11:55:59;7.57;;;4.40;;
4642;SDS011;2334;48.710;9.622;2022-10-31T11:58:30;13.80;;;4.60;;
4642;SDS011;2334;48.710;9.622;2022-10-31T12:00:57;14.80;;;4.10;;
4642;SDS011;2334;48.710;9.622;2022-10-31T12:03:27;8.67;;;4.13;;
4642;SDS011;2334;48.710;9.622;2022-10-31T12:06:04;12.43;;;3.80;;
4642;SDS011;2334;48.710;9.622;2022-10-31T12:08:35;14.00;;;4.73;;
4642;SDS011;2334;48.710;9.622;2022-10-31T12:11:06;12.70;;;4.30;;
4642;SDS011;2334;48.710;9.622;2022-10-31T12:13:39;11.20;;;5.57;;
4642;SDS011;2334;48.710;9.622;2022-10-31T12:16:22;10.00;;;4.67;;
4642;SDS011;2334;48.710;9.622;2022-10-31T12:18:57;16.40;;;5.03;;
4642;SDS011;2334;48.710;9.622;2022-10-31T12:24:38;10.60;;;4.53;;
4642;SDS011;2334;48.710;9.622;2022-10-31T12:27:28;5.33;;;3.97;;
4642;SDS011;2334;48.710;9.622;2022-10-31T12:30:13;10.63;;;4.60;;
4642;SDS011;2334;48.710;9.622;2022-10-31T12:32:58;15.60;;;4.00;;
4642;SDS011;2334;48.710;9.622;2022-10-31T12:35:40;20.30;;;3.53;;
4642;SDS011;2334;48.710;9.622;2022-10-31T12:38:26;12.70;;;4.67;;
4642;SDS011;2334;48.710;9.622;2022-10-31T12:41:07;7.13;;;4.20;;
4642;SDS011;2334;48.710;9.622;2022-10-31T12:43:44;7.93;;;4.37;;
4642;SDS011;2334;48.710;9.622;2022-10-31T12:46:16;10.73;;;5.20;;
4642;SDS011;2334;48.710;9.622;2022-10-31T12:49:10;10.93;;;4.77;;
4642;SDS011;2334;48.710;9.622;2022-10-31T12:51:52;9.20;;;4.40;;
4642;SDS011;2334;48.710;9.622;2022-10-31T12:54:36;11.70;;;4.00;;
4642;SDS011;2334;48.710;9.622;2022-10-31T12:57:20;8.73;;;4.10;;
4642;SDS011;2334;48.710;9.622;2022-10-31T12:59:51;9.77;;;4.90;;
4642;SDS011;2334;48.710;9.622;2022-10-31T13:02:21;7.40;;;4.03;;
4642;SDS011;2334;48.710;9.622;2022-10-31T13:04:54;7.77;;;4.73;;
4642;SDS011;2334;48.710;9.622;2022-10-31T13:07:24;8.20;;;3.97;;
4642;SDS011;2334;48.710;9.622;2022-10-31T13:09:58;16.30;;;5.10;;
4642;SDS011;2334;48.710;9.622;2022-10-31T13:12:29;14.50;;;6.03;;
4642;SDS011;2334;48.710;9.622;2022-10-31T13:14:59;6.60;;;3.90;;
4642;SDS011;2334;48.710;9.622;2022-10-31T13:17:31;9.07;;;5.27;;
4642;SDS011;2334;48.710;9.622;2022-10-31T13:20:16;9.93;;;3.80;;
4642;SDS011;2334;48.710;9.622;2022-10-31T13:22:48;15.27;;;4.30;;
4642;SDS011;2334;48.710;9.622;2022-10-31T13:25:19;12.43;;;4.63;;
4642;SDS011;2334;48.710;9.622;2022-10-31T13:27:54;8.03;;;5.00;;
4642;SDS011;2334;48.710;9.622;2022-10-31T13:30:25;12.10;;;5.50;;
4642;SDS011;2334;48.710;9.622;2022-10-31T13:32:58;15.53;;;4.73;;
4642;SDS011;2334;48.710;9.622;2022-10-31T13:35:30;8.80;;;5.17;;
4642;SDS011;2334;48.710;9.622;2022-10-31T13:38:03;9.50;;;5.50;;
4642;SDS011;2334;48.710;9.622;2022-10-31T13:40:39;8.40;;;4.23;;
4642;SDS011;2334;48.710;9.622;2022-10-31T13:43:14;7.60;;;4.57;;
4642;SDS011;2334;48.710;9.622;2022-10-31T13:45:49;9.50;;;4.77;;
4642;SDS011;2334;48.710;9.622;2022-10-31T13:48:18;11.20;;;4.50;;
4642;SDS011;2334;48.710;9.622;2022-10-31T13:51:00;9.17;;;4.07;;
4642;SDS011;2334;48.710;9.622;2022-10-31T13:53:35;11.97;;;4.10;;
4642;SDS011;2334;48.710;9.622;2022-10-31T13:56:04;7.17;;;4.43;;
4642;SDS011;2334;48.710;9.622;2022-10-31T13:58:42;6.70;;;3.70;;
4642;SDS011;2334;48.710;9.622;2022-10-31T14:01:24;7.40;;;3.80;;
4642;SDS011;2334;48.710;9.622;2022-10-31T14:03:59;11.10;;;4.23;;
4642;SDS011;2334;48.710;9.622;2022-10-31T14:06:39;6.63;;;3.73;;
4642;SDS011;2334;48.710;9.622;2022-10-31T14:09:20;6.07;;;3.37;;
4642;SDS011;2334;48.710;9.622;2022-10-31T14:11:50;15.03;;;4.60;;
4642;SDS011;2334;48.710;9.622;2022-10-31T14:14:19;12.13;;;4.93;;
4642;SDS011;2334;48.710;9.622;2022-10-31T14:16:52;19.30;;;4.87;;
4642;SDS011;2334;48.710;9.622;2022-10-31T14:19:22;10.97;;;4.50;;
4642;SDS011;2334;48.710;9.622;2022-10-31T14:21:49;7.43;;;4.40;;
4642;SDS011;2334;48.710;9.622;2022-10-31T14:24:30;16.73;;;6.97;;
4642;SDS011;2334;48.710;9.622;2022-10-31T14:26:59;10.10;;;4.83;;
4642;SDS011;2334;48.710;9.622;2022-10-31T14:29:28;9.73;;;4.23;;
4642;SDS011;2334;48.710;9.622;2022-10-31T14:31:58;13.10;;;4.33;;
4642;SDS011;2334;48.710;9.622;2022-10-31T14:34:33;12.67;;;5.17;;
4642;SDS011;2334;48.710;9.622;2022-10-31T14:37:04;7.90;;;4.83;;
4642;SDS011;2334;48.710;9.622;2022-10-31T14:39:46;5.50;;;4.20;;
4642;SDS011;2334;48.710;9.622;2022-10-31T14:42:29;12.77;;;4.17;;
4642;SDS011;2334;48.710;9.622;2022-10-31T14:45:16;8.90;;;3.90;;
4642;SDS011;2334;48.710;9.622;2022-10-31T14:47:55;9.83;;;4.80;;
4642;SDS011;2334;48.710;9.622;2022-10-31T14:50:38;10.77;;;5.23;;
4642;SDS011;2334;48.710;9.622;2022-10-31T14:53:12;9.77;;;5.20;;
4642;SDS011;2334;48.710;9.622;2022-10-31T14:55:45;22.37;;;5.10;;
4642;SDS011;2334;48.710;9.622;2022-10-31T14:58:16;15.00;;;5.57;;
4642;SDS011;2334;48.710;9.622;2022-10-31T15:00:49;16.10;;;5.40;;
4642;SDS011;2334;48.710;9.622;2022-10-31T15:03:22;11.70;;;5.03;;
4642;SDS011;2334;48.710;9.622;2022-10-31T15:05:55;11.70;;;5.70;;
4642;SDS011;2334;48.710;9.622;2022-10-31T15:08:26;12.80;;;4.37;;
4642;SDS011;2334;48.710;9.622;2022-10-31T15:10:57;8.77;;;4.20;;
4642;SDS011;2334;48.710;9.622;2022-10-31T15:13:24;11.97;;;3.87;;
4642;SDS011;2334;48.710;9.622;2022-10-31T15:15:52;9.17;;;4.43;;
4642;SDS011;2334;48.710;9.622;2022-10-31T15:18:22;6.17;;;4.03;;
4642;SDS011;2334;48.710;9.622;2022-10-31T15:20:52;6.53;;;4.17;;
4642;SDS011;2334;48.710;9.622;2022-10-31T15:23:21;10.30;;;4.80;;
4642;SDS011;2334;48.710;9.622;2022-10-31T15:25:57;9.17;;;3.83;;
4642;SDS011;2334;48.710;9.622;2022-10-31T15:28:25;10.60;;;5.00;;
4642;SDS011;2334;48.710;9.622;2022-10-31T15:30:54;10.60;;;5.63;;
4642;SDS011;2334;48.710;9.622;2022-10-31T15:33:24;5.33;;;4.40;;
4642;SDS011;2334;48.710;9.622;2022-10-31T15:35:57;10.93;;;3.90;;
4642;SDS011;2334;48.710;9.622;2022-10-31T15:38:25;13.30;;;5.93;;
4642;SDS011;2334;48.710;9.622;2022-10-31T15:40:54;13.07;;;6.57;;
4642;SDS011;2334;48.710;9.622;2022-10-31T15:43:23;8.07;;;5.00;;
4642;SDS011;2334;48.710;9.622;2022-10-31T15:45:51;12.40;;;4.13;;
4642;SDS011;2334;48.710;9.622;2022-10-31T15:48:21;9.27;;;5.07;;